createdAt,value
2022-12-11T00:01:13.178Z,81.94
2022-12-11T00:03:39.766Z,82.46
2022-12-11T00:06:12.399Z,82.09
2022-12-11T00:08:39.660Z,82.35
2022-12-11T00:11:08.872Z,82.10
2022-12-11T00:13:35.629Z,81.84
2022-12-11T00:16:02.217Z,81.19
2022-12-11T00:18:28.680Z,81.39
2022-12-11T00:20:55.209Z,81.91
2022-12-11T00:23:21.670Z,82.44
2022-12-11T00:25:48.197Z,81.42
2022-12-11T00:28:18.832Z,81.58
2022-12-11T00:30:46.555Z,82.14
2022-12-11T00:33:14.497Z,82.02
2022-12-11T00:35:43.749Z,81.61
2022-12-11T00:38:15.924Z,82.06
2022-12-11T00:40:42.800Z,82.10
2022-12-11T00:43:09.367Z,82.30
2022-12-11T00:45:40.950Z,82.57
2022-12-11T00:48:08.932Z,83.56
2022-12-11T00:50:36.275Z,85.10
2022-12-11T00:53:05.211Z,85.19
2022-12-11T00:55:32.313Z,85.27
2022-12-11T00:57:58.776Z,87.43
2022-12-11T01:00:25.250Z,87.25
2022-12-11T01:02:51.745Z,86.21
2022-12-11T01:05:18.362Z,86.70
2022-12-11T01:07:44.906Z,88.26
2022-12-11T01:10:25.418Z,89.03
2022-12-11T01:13:06.565Z,89.39
2022-12-11T01:15:42.226Z,88.85
2022-12-11T01:18:10.187Z,88.83
2022-12-11T01:20:39.901Z,88.91
2022-12-11T01:23:06.701Z,88.18
2022-12-11T01:25:35.647Z,87.79
2022-12-11T01:28:02.087Z,86.71
2022-12-11T01:30:28.653Z,85.94
2022-12-11T01:32:55.080Z,85.73
2022-12-11T01:35:21.982Z,84.61
2022-12-11T01:37:49.053Z,84.58
2022-12-11T01:40:18.182Z,84.13
2022-12-11T01:42:44.615Z,84.05
2022-12-11T01:45:29.203Z,83.75
2022-12-11T01:48:18.726Z,83.56
2022-12-11T01:51:05.738Z,83.47
2022-12-11T01:53:39.043Z,83.63
2022-12-11T01:56:06.689Z,84.19
2022-12-11T01:58:44.122Z,84.38
2022-12-11T02:01:16.976Z,84.55
2022-12-11T02:03:43.748Z,84.00
2022-12-11T02:06:36.979Z,83.92
2022-12-11T02:09:07.355Z,83.89
2022-12-11T02:12:03.683Z,83.47
2022-12-11T02:14:44.663Z,83.56
2022-12-11T02:17:23.557Z,83.08
2022-12-11T02:19:59.898Z,83.31
2022-12-11T02:22:30.398Z,83.37
2022-12-11T02:25:20.836Z,83.32
2022-12-11T02:28:31.253Z,83.80
2022-12-11T02:31:04.342Z,83.19
2022-12-11T02:33:44.211Z,83.25
2022-12-11T02:36:12.036Z,83.38
2022-12-11T02:38:41.745Z,83.26
2022-12-11T02:41:11.429Z,84.77
2022-12-11T02:43:39.305Z,85.60
2022-12-11T02:46:07.986Z,85.89
2022-12-11T02:48:36.956Z,85.24
2022-12-11T02:51:06.163Z,84.18
2022-12-11T02:53:41.328Z,85.05
2022-12-11T02:56:34.437Z,85.73
2022-12-11T02:59:06.715Z,85.48
2022-12-11T03:01:35.976Z,85.48
2022-12-11T03:04:02.612Z,84.92
2022-12-11T03:06:36.841Z,84.30
2022-12-11T03:09:05.384Z,85.00
2022-12-11T03:11:31.855Z,84.38
2022-12-11T03:14:02.727Z,84.35
2022-12-11T03:16:37.028Z,83.98
2022-12-11T03:19:41.303Z,83.92
2022-12-11T03:22:12.802Z,84.21
2022-12-11T03:24:48.790Z,84.19
2022-12-11T03:27:25.925Z,84.35
2022-12-11T03:30:02.505Z,84.11
2022-12-11T03:32:35.627Z,83.91
2022-12-11T03:35:31.781Z,84.20
2022-12-11T03:38:03.035Z,84.25
2022-12-11T03:40:33.296Z,83.94
2022-12-11T03:43:00.676Z,84.00
2022-12-11T03:45:30.259Z,84.20
2022-12-11T03:47:59.888Z,84.95
2022-12-11T03:50:29.767Z,84.77
2022-12-11T03:52:57.556Z,84.26
2022-12-11T03:55:24.847Z,84.54
2022-12-11T03:57:51.335Z,84.78
2022-12-11T04:00:20.263Z,85.50
2022-12-11T04:03:11.356Z,86.15
2022-12-11T04:05:41.263Z,85.92
2022-12-11T04:08:07.826Z,85.81
2022-12-11T04:10:36.935Z,85.08
2022-12-11T04:13:03.459Z,85.17
2022-12-11T04:15:29.889Z,85.13
2022-12-11T04:18:14.984Z,84.67
2022-12-11T04:20:59.695Z,85.09
2022-12-11T04:23:45.014Z,84.93
2022-12-11T04:26:14.813Z,85.02
2022-12-11T04:28:42.671Z,84.56
2022-12-11T04:31:19.225Z,84.52
2022-12-11T04:33:46.225Z,85.06
2022-12-11T04:36:13.286Z,85.14
2022-12-11T04:38:40.120Z,84.69
2022-12-11T04:41:10.767Z,85.05
2022-12-11T04:43:37.604Z,85.16
2022-12-11T04:46:11.623Z,85.76
2022-12-11T04:48:39.024Z,85.65
2022-12-11T04:51:06.125Z,85.62
2022-12-11T04:53:32.916Z,85.86
2022-12-11T04:55:59.385Z,86.35
2022-12-11T04:58:26.192Z,86.09
2022-12-11T05:00:53.249Z,85.41
2022-12-11T05:03:20.595Z,85.03
2022-12-11T05:05:52.090Z,84.63
2022-12-11T05:08:19.563Z,84.67
2022-12-11T05:10:55.361Z,85.00
2022-12-11T05:13:21.865Z,84.52
2022-12-11T05:15:48.490Z,85.25
2022-12-11T05:18:15.075Z,85.52
2022-12-11T05:20:41.470Z,86.08
2022-12-11T05:23:07.898Z,86.19
2022-12-11T05:25:34.294Z,86.27
2022-12-11T05:28:00.706Z,85.82
2022-12-11T05:30:27.116Z,86.03
2022-12-11T05:32:53.502Z,86.03
2022-12-11T05:35:20.011Z,86.25
2022-12-11T05:37:46.494Z,85.80
2022-12-11T05:40:12.988Z,85.61
2022-12-11T05:42:39.404Z,85.55
2022-12-11T05:45:06.428Z,85.38
2022-12-11T05:47:32.911Z,85.55
2022-12-11T05:49:59.310Z,85.60
2022-12-11T05:52:25.758Z,85.51
2022-12-11T05:54:52.213Z,85.30
2022-12-11T05:57:18.606Z,85.33
2022-12-11T05:59:45.277Z,84.54
2022-12-11T06:02:11.696Z,85.13
2022-12-11T06:04:38.154Z,84.36
2022-12-11T06:07:04.588Z,84.54
2022-12-11T06:09:30.981Z,84.69
2022-12-11T06:11:57.351Z,84.91
2022-12-11T06:14:23.687Z,85.45
2022-12-11T06:16:50.381Z,84.80
2022-12-11T06:19:20.224Z,85.37
2022-12-11T06:21:48.817Z,85.47
2022-12-11T06:24:15.378Z,85.70
2022-12-11T06:26:41.833Z,85.76
2022-12-11T06:29:12.570Z,85.22
2022-12-11T06:31:39.686Z,85.03
2022-12-11T06:34:06.143Z,84.97
2022-12-11T06:36:32.599Z,84.43
2022-12-11T06:38:59.031Z,85.05
2022-12-11T06:41:25.838Z,85.86
2022-12-11T06:43:52.368Z,85.72
2022-12-11T06:46:19.936Z,85.93
2022-12-11T06:48:47.495Z,85.64
2022-12-11T06:51:20.021Z,86.04
2022-12-11T06:53:54.723Z,85.16
2022-12-11T06:56:21.945Z,86.20
2022-12-11T06:58:48.503Z,85.50
2022-12-11T07:01:23.906Z,85.31
2022-12-11T07:03:56.302Z,85.69
2022-12-11T07:06:23.822Z,86.30
2022-12-11T07:08:50.658Z,85.95
2022-12-11T07:11:18.967Z,85.37
2022-12-11T07:13:46.178Z,85.44
2022-12-11T07:16:15.661Z,86.27
2022-12-11T07:18:47.063Z,86.12
2022-12-11T07:21:14.469Z,86.52
2022-12-11T07:23:41.525Z,85.84
2022-12-11T07:26:10.610Z,85.82
2022-12-11T07:28:37.094Z,84.91
2022-12-11T07:31:07.975Z,84.98
2022-12-11T07:33:34.831Z,84.28
2022-12-11T07:36:03.335Z,84.99
2022-12-11T07:38:30.050Z,85.27
2022-12-11T07:40:56.827Z,85.84
2022-12-11T07:43:23.258Z,85.28
2022-12-11T07:45:49.657Z,85.40
2022-12-11T07:48:16.179Z,85.54
2022-12-11T07:50:42.600Z,86.04
2022-12-11T07:53:08.994Z,85.40
2022-12-11T07:55:35.413Z,84.78
2022-12-11T07:58:01.925Z,84.77
2022-12-11T08:00:28.362Z,84.48
2022-12-11T08:02:54.863Z,83.96
2022-12-11T08:05:21.498Z,83.32
2022-12-11T08:07:47.960Z,84.00
2022-12-11T08:10:14.393Z,84.04
2022-12-11T08:12:40.764Z,84.34
2022-12-11T08:15:07.874Z,85.16
2022-12-11T08:17:39.871Z,84.73
2022-12-11T08:20:06.974Z,84.19
2022-12-11T08:22:34.070Z,84.94
2022-12-11T08:25:00.500Z,85.79
2022-12-11T08:27:26.929Z,85.09
2022-12-11T08:29:53.306Z,84.44
2022-12-11T08:32:19.806Z,84.00
2022-12-11T08:34:46.325Z,84.07
2022-12-11T08:37:13.605Z,84.10
2022-12-11T08:39:40.064Z,83.35
2022-12-11T08:42:07.127Z,83.33
2022-12-11T08:44:33.542Z,82.78
2022-12-11T08:46:59.900Z,82.64
2022-12-11T08:49:28.672Z,81.65
2022-12-11T08:51:59.231Z,81.39
2022-12-11T08:54:25.731Z,81.93
2022-12-11T08:56:56.408Z,82.24
2022-12-11T08:59:25.554Z,83.03
2022-12-11T09:01:52.291Z,83.16
2022-12-11T09:04:19.304Z,82.89
2022-12-11T09:06:45.798Z,82.87
2022-12-11T09:09:12.735Z,82.04
2022-12-11T09:11:39.218Z,82.35
2022-12-11T09:14:08.013Z,82.78
2022-12-11T09:16:40.471Z,82.45
2022-12-11T09:19:10.975Z,82.37
2022-12-11T09:21:37.596Z,82.48
2022-12-11T09:24:04.409Z,81.70
2022-12-11T09:26:30.876Z,81.88
2022-12-11T09:28:57.964Z,82.09
2022-12-11T09:31:30.542Z,81.80
2022-12-11T09:33:59.518Z,81.97
2022-12-11T09:36:26.451Z,82.20
2022-12-11T09:38:53.576Z,82.48
2022-12-11T09:41:29.488Z,81.69
2022-12-11T09:44:06.799Z,81.89
2022-12-11T09:46:35.710Z,81.05
2022-12-11T09:49:04.656Z,80.40
2022-12-11T09:51:39.158Z,81.25
2022-12-11T09:54:05.980Z,81.33
2022-12-11T09:56:53.640Z,81.61
2022-12-11T09:59:37.421Z,81.58
2022-12-11T10:02:22.316Z,81.90
2022-12-11T10:05:13.710Z,80.79
2022-12-11T10:07:56.976Z,81.06
2022-12-11T10:10:29.622Z,80.68
2022-12-11T10:13:02.246Z,80.51
2022-12-11T10:15:31.606Z,80.35
2022-12-11T10:18:04.946Z,79.67
2022-12-11T10:20:36.515Z,80.25
2022-12-11T10:23:06.260Z,81.08
2022-12-11T10:25:36.682Z,81.49
2022-12-11T10:28:14.584Z,81.66
2022-12-11T10:31:02.577Z,81.13
2022-12-11T10:34:00.511Z,81.14
2022-12-11T10:36:38.716Z,80.88
2022-12-11T10:39:16.807Z,79.42
2022-12-11T10:41:46.075Z,79.67
2022-12-11T10:44:17.617Z,80.37
2022-12-11T10:46:45.534Z,79.51
2022-12-11T10:49:23.987Z,78.84
2022-12-11T10:51:51.941Z,78.63
2022-12-11T10:54:32.443Z,79.32
2022-12-11T10:57:02.211Z,79.16
2022-12-11T10:59:34.159Z,78.85
2022-12-11T11:02:01.229Z,78.44
2022-12-11T11:04:36.703Z,79.12
2022-12-11T11:07:13.470Z,79.78
2022-12-11T11:09:40.627Z,79.56
2022-12-11T11:12:22.439Z,78.99
2022-12-11T11:15:02.965Z,78.76
2022-12-11T11:17:35.178Z,79.57
2022-12-11T11:20:12.031Z,80.23
2022-12-11T11:22:46.390Z,79.28
2022-12-11T11:25:25.151Z,79.71
2022-12-11T11:27:55.996Z,79.35
2022-12-11T11:30:28.496Z,78.86
2022-12-11T11:33:00.823Z,79.43
2022-12-11T11:35:29.848Z,78.53
2022-12-11T11:38:13.125Z,78.59
2022-12-11T11:40:50.062Z,78.72
2022-12-11T11:43:29.100Z,78.88
2022-12-11T11:46:01.891Z,79.04
2022-12-11T11:48:50.053Z,78.54
2022-12-11T11:51:37.591Z,78.70
2022-12-11T11:54:18.521Z,78.46
2022-12-11T11:56:46.294Z,77.99
2022-12-11T11:59:28.084Z,78.37
2022-12-11T12:01:56.785Z,78.20
2022-12-11T12:04:24.425Z,78.35
2022-12-11T12:07:09.035Z,77.59
2022-12-11T12:09:54.384Z,77.77
2022-12-11T12:13:01.333Z,77.89
2022-12-11T12:15:58.488Z,77.67
2022-12-11T12:18:27.612Z,78.09
2022-12-11T12:21:08.883Z,78.45
2022-12-11T12:23:50.231Z,78.34
2022-12-11T12:26:30.280Z,78.71
2022-12-11T12:29:21.386Z,79.06
2022-12-11T12:32:08.289Z,79.04
2022-12-11T12:35:03.726Z,77.88
2022-12-11T12:37:30.207Z,78.11
2022-12-11T12:40:08.709Z,77.92
2022-12-11T12:43:00.173Z,77.82
2022-12-11T12:45:33.165Z,77.40
2022-12-11T12:47:59.673Z,77.36
2022-12-11T12:50:40.351Z,77.16
2022-12-11T12:53:10.132Z,77.40
2022-12-11T12:55:37.071Z,77.67
2022-12-11T12:58:07.438Z,77.28
2022-12-11T13:00:40.668Z,77.15
2022-12-11T13:03:17.098Z,78.19
2022-12-11T13:05:54.816Z,78.08
2022-12-11T13:08:29.856Z,77.73
2022-12-11T13:11:06.010Z,77.67
2022-12-11T13:13:37.493Z,77.68
2022-12-11T13:16:16.173Z,77.86
2022-12-11T13:18:45.130Z,78.21
2022-12-11T13:21:27.068Z,78.11
2022-12-11T13:23:54.365Z,78.40
2022-12-11T13:26:32.016Z,78.92
2022-12-11T13:28:58.972Z,79.15
2022-12-11T13:31:35.604Z,78.41
2022-12-11T13:34:20.527Z,78.23
2022-12-11T13:36:50.532Z,77.71
2022-12-11T13:39:27.755Z,77.29
2022-12-11T13:42:00.027Z,78.21
2022-12-11T13:44:33.749Z,78.51
2022-12-11T13:47:03.030Z,78.06
2022-12-11T13:49:38.518Z,77.49
2022-12-11T13:52:06.055Z,78.24
2022-12-11T13:54:36.615Z,78.04
2022-12-11T13:57:17.015Z,78.17
2022-12-11T13:59:53.038Z,79.10
2022-12-11T14:02:25.710Z,78.62
2022-12-11T14:04:56.844Z,78.99
2022-12-11T14:07:46.829Z,78.97
2022-12-11T14:10:17.831Z,79.92
2022-12-11T14:13:08.155Z,78.91
2022-12-11T14:15:36.264Z,78.66
2022-12-11T14:18:05.461Z,78.91
2022-12-11T14:20:34.069Z,79.67
2022-12-11T14:23:18.185Z,79.77
2022-12-11T14:26:19.873Z,78.80
2022-12-11T14:28:46.535Z,79.42
2022-12-11T14:31:18.074Z,79.59
2022-12-11T14:33:49.568Z,78.85
2022-12-11T14:36:17.821Z,77.68
2022-12-11T14:38:48.093Z,78.51
2022-12-11T14:41:27.055Z,77.90
2022-12-11T14:43:59.440Z,78.39
2022-12-11T14:46:46.238Z,77.85
2022-12-11T14:49:26.919Z,78.74
2022-12-11T14:51:56.433Z,80.02
2022-12-11T14:54:31.799Z,80.45
2022-12-11T14:57:02.847Z,79.97
2022-12-11T15:02:27.692Z,79.54
2022-12-11T15:05:02.294Z,79.00
2022-12-11T15:07:29.049Z,78.65
2022-12-11T15:09:56.712Z,78.38
2022-12-11T15:12:24.051Z,78.15
2022-12-11T15:14:57.263Z,78.16
2022-12-11T15:17:26.047Z,78.99
2022-12-11T15:20:02.744Z,79.56
2022-12-11T15:22:32.181Z,79.11
2022-12-11T15:24:59.441Z,79.58
2022-12-11T15:27:37.685Z,80.06
2022-12-11T15:30:28.086Z,79.55
2022-12-11T15:33:04.799Z,79.45
2022-12-11T15:35:31.311Z,79.63
2022-12-11T15:37:59.483Z,78.48
2022-12-11T15:40:27.094Z,78.57
2022-12-11T15:42:54.991Z,78.99
2022-12-11T15:45:24.542Z,79.62
2022-12-11T15:47:52.166Z,80.77
2022-12-11T15:50:21.365Z,80.86
2022-12-11T15:52:48.785Z,80.62
2022-12-11T15:55:17.384Z,81.18
2022-12-11T15:57:55.661Z,82.11
2022-12-11T16:00:24.018Z,82.00
2022-12-11T16:02:51.603Z,82.90
2022-12-11T16:05:18.145Z,82.42
2022-12-11T16:07:44.754Z,83.12
2022-12-11T16:10:14.884Z,82.32
2022-12-11T16:12:42.031Z,82.84
2022-12-11T16:15:09.317Z,83.21
2022-12-11T16:17:36.130Z,84.42
2022-12-11T16:20:02.650Z,83.50
2022-12-11T16:22:29.148Z,83.59
2022-12-11T16:24:55.604Z,83.41
2022-12-11T16:27:23.336Z,83.52
2022-12-11T16:29:50.096Z,82.58
2022-12-11T16:32:16.986Z,82.38
2022-12-11T16:34:43.520Z,82.78
2022-12-11T16:37:10.008Z,84.36
2022-12-11T16:39:38.006Z,84.67
2022-12-11T16:42:05.765Z,83.81
2022-12-11T16:44:32.494Z,83.61
2022-12-11T16:46:58.951Z,83.97
2022-12-11T16:49:25.338Z,83.05
2022-12-11T16:51:51.679Z,82.62
2022-12-11T16:54:18.328Z,83.02
2022-12-11T16:56:45.089Z,82.91
2022-12-11T16:59:12.861Z,83.16
2022-12-11T17:01:39.965Z,83.12
2022-12-11T17:04:06.562Z,83.17
2022-12-11T17:06:33.020Z,83.03
2022-12-11T17:08:59.588Z,82.68
2022-12-11T17:11:26.217Z,82.76
2022-12-11T17:13:54.896Z,82.94
2022-12-11T17:16:22.287Z,82.91
2022-12-11T17:18:48.809Z,82.78
2022-12-11T17:21:17.584Z,83.01
2022-12-11T17:23:44.977Z,82.93
2022-12-11T17:26:11.944Z,82.73
2022-12-11T17:28:39.240Z,83.43
2022-12-11T17:31:07.330Z,84.04
2022-12-11T17:33:33.833Z,85.80
2022-12-11T17:36:05.658Z,86.22
2022-12-11T17:38:32.539Z,86.97
2022-12-11T17:40:59.143Z,86.35
2022-12-11T17:43:25.908Z,88.09
2022-12-11T17:45:52.546Z,88.26
2022-12-11T17:48:22.340Z,86.09
2022-12-11T17:50:50.959Z,85.15
2022-12-11T17:53:19.876Z,84.80
2022-12-11T17:55:47.550Z,85.58
2022-12-11T17:58:20.714Z,86.04
2022-12-11T18:00:49.921Z,85.26
2022-12-11T18:03:16.846Z,85.01
2022-12-11T18:05:45.593Z,85.98
2022-12-11T18:08:17.525Z,87.38
2022-12-11T18:10:45.304Z,86.70
2022-12-11T18:13:12.450Z,86.20
2022-12-11T18:15:39.587Z,85.95
2022-12-11T18:18:06.956Z,85.86
2022-12-11T18:20:34.358Z,85.80
2022-12-11T18:23:01.057Z,85.93
2022-12-11T18:25:28.112Z,86.51
2022-12-11T18:27:57.657Z,86.18
2022-12-11T18:30:25.715Z,86.85
2022-12-11T18:32:52.180Z,87.22
2022-12-11T18:35:19.334Z,87.20
2022-12-11T18:37:45.690Z,86.12
2022-12-11T18:40:12.343Z,86.33
2022-12-11T18:42:38.925Z,86.61
2022-12-11T18:45:06.998Z,86.22
2022-12-11T18:47:34.079Z,85.93
2022-12-11T18:50:07.218Z,86.02
2022-12-11T18:52:34.793Z,86.00
2022-12-11T18:55:01.482Z,85.59
2022-12-11T18:57:27.922Z,86.68
2022-12-11T18:59:54.527Z,86.26
2022-12-11T19:02:21.665Z,85.98
2022-12-11T19:04:48.218Z,85.95
2022-12-11T19:07:14.634Z,86.21
2022-12-11T19:09:46.197Z,86.25
2022-12-11T19:12:14.468Z,87.04
2022-12-11T19:14:41.038Z,87.24
2022-12-11T19:17:07.470Z,86.75
2022-12-11T19:19:34.065Z,86.92
2022-12-11T19:22:00.592Z,86.77
2022-12-11T19:24:27.286Z,86.81
2022-12-11T19:26:53.809Z,86.41
2022-12-11T19:29:27.044Z,86.48
2022-12-11T19:31:55.537Z,86.50
2022-12-11T19:34:22.835Z,85.98
2022-12-11T19:36:49.606Z,86.20
2022-12-11T19:39:16.503Z,86.40
2022-12-11T19:41:43.242Z,86.63
2022-12-11T19:44:09.704Z,87.50
2022-12-11T19:46:36.243Z,87.89
2022-12-11T19:49:02.929Z,87.49
2022-12-11T19:51:36.359Z,87.04
2022-12-11T19:54:03.180Z,86.32
2022-12-11T19:56:29.930Z,86.44
2022-12-11T19:58:56.583Z,86.49
2022-12-11T20:01:30.150Z,86.48
2022-12-11T20:03:59.744Z,86.12
2022-12-11T20:06:34.327Z,87.33
2022-12-11T20:09:01.739Z,87.41
2022-12-11T20:11:28.526Z,86.82
2022-12-11T20:13:56.018Z,86.09
2022-12-11T20:16:45.847Z,86.75
2022-12-11T20:19:09.556Z,87.09
2022-12-11T20:21:36.128Z,87.64
2022-12-11T20:24:03.513Z,87.94
2022-12-11T20:26:32.454Z,87.75
2022-12-11T20:28:59.119Z,86.88
2022-12-11T20:31:26.262Z,87.04
2022-12-11T20:33:53.606Z,87.76
2022-12-11T20:36:22.515Z,87.64
2022-12-11T20:38:49.863Z,87.03
2022-12-11T20:41:20.459Z,86.87
2022-12-11T20:43:48.990Z,86.43
2022-12-11T20:46:17.388Z,86.13
2022-12-11T20:48:44.892Z,85.92
2022-12-11T20:51:13.203Z,86.06
2022-12-11T20:53:40.436Z,85.87
2022-12-11T20:56:12.458Z,86.23
2022-12-11T20:58:39.914Z,86.85
2022-12-11T21:01:06.831Z,86.35
2022-12-11T21:03:38.927Z,86.38
2022-12-11T21:06:09.212Z,86.15
2022-12-11T21:08:35.614Z,85.80
2022-12-11T21:11:02.558Z,86.45
2022-12-11T21:13:29.030Z,87.28
2022-12-11T21:15:56.783Z,87.04
2022-12-11T21:18:23.400Z,86.54
2022-12-11T21:20:49.830Z,87.00
2022-12-11T21:23:16.306Z,87.80
2022-12-11T21:25:43.020Z,88.83
2022-12-11T21:28:09.407Z,87.77
2022-12-11T21:30:40.074Z,87.63
2022-12-11T21:33:06.596Z,86.83
2022-12-11T21:35:32.957Z,86.72
2022-12-11T21:37:59.405Z,87.15
2022-12-11T21:40:25.836Z,87.22
2022-12-11T21:42:52.321Z,86.50
2022-12-11T21:48:05.356Z,87.71
2022-12-11T21:50:31.967Z,88.21
2022-12-11T21:52:58.868Z,87.85
2022-12-11T21:55:25.567Z,88.37
2022-12-11T21:57:54.408Z,87.78
2022-12-11T22:00:22.016Z,88.10
2022-12-11T22:02:49.547Z,88.36
2022-12-11T22:05:16.104Z,88.14
2022-12-11T22:07:42.542Z,88.29
2022-12-11T22:10:09.523Z,88.55
2022-12-11T22:12:36.006Z,88.15
2022-12-11T22:15:02.599Z,87.82
2022-12-11T22:17:29.036Z,87.92
2022-12-11T22:19:55.395Z,89.44
2022-12-11T22:22:21.833Z,89.72
2022-12-11T22:24:48.327Z,89.37
2022-12-11T22:27:19.043Z,89.25
2022-12-11T22:29:48.545Z,89.26
2022-12-11T22:32:15.047Z,88.86
2022-12-11T22:34:41.509Z,88.46
2022-12-11T22:37:08.080Z,88.15
2022-12-11T22:39:34.515Z,87.82
2022-12-11T22:42:01.011Z,87.45
2022-12-11T22:44:27.506Z,87.17
2022-12-11T22:46:53.980Z,87.56
2022-12-11T22:49:20.521Z,87.58
2022-12-11T22:51:47.278Z,88.37
2022-12-11T22:54:13.643Z,88.56
2022-12-11T22:56:40.297Z,88.33
2022-12-11T22:59:07.553Z,88.37
2022-12-11T23:01:34.353Z,87.63
2022-12-11T23:04:00.743Z,87.74
2022-12-11T23:06:27.412Z,87.77
2022-12-11T23:08:58.221Z,87.40
2022-12-11T23:11:28.744Z,87.87
2022-12-11T23:13:56.027Z,88.00
2022-12-11T23:16:26.411Z,87.94
2022-12-11T23:18:54.220Z,87.98
2022-12-11T23:21:21.731Z,88.27
2022-12-11T23:23:48.669Z,87.85
2022-12-11T23:26:15.960Z,87.69
2022-12-11T23:28:42.561Z,88.01
2022-12-11T23:31:09.449Z,88.03
2022-12-11T23:33:36.452Z,88.26
2022-12-11T23:36:03.411Z,88.54
2022-12-11T23:38:30.440Z,88.36
2022-12-11T23:40:59.659Z,88.50
2022-12-11T23:43:26.342Z,89.08
2022-12-11T23:45:53.191Z,89.31
2022-12-11T23:48:19.754Z,89.29
2022-12-11T23:50:46.674Z,90.10
2022-12-11T23:53:13.178Z,89.73
2022-12-11T23:55:41.651Z,90.21
2022-12-11T23:58:08.152Z,90.14
